sensor_id;sensor_type;location;lat;lon;timestamp;P1;durP1;ratioP1;P2;durP2;ratioP2
8293;SDS011;4185;41.506;24.938;2023-05-02T00:01:13;7.17;;;5.90;;
8293;SDS011;4185;41.506;24.938;2023-05-02T00:03:40;10.23;;;7.73;;
8293;SDS011;4185;41.506;24.938;2023-05-02T00:06:07;8.63;;;7.57;;
8293;SDS011;4185;41.506;24.938;2023-05-02T00:08:36;9.63;;;7.27;;
8293;SDS011;4185;41.506;24.938;2023-05-02T00:11:03;11.73;;;7.87;;
8293;SDS011;4185;41.506;24.938;2023-05-02T00:13:30;8.27;;;7.40;;
8293;SDS011;4185;41.506;24.938;2023-05-02T00:15:57;8.30;;;6.63;;
8293;SDS011;4185;41.506;24.938;2023-05-02T00:18:24;8.60;;;6.90;;
8293;SDS011;4185;41.506;24.938;2023-05-02T00:20:51;8.60;;;7.10;;
8293;SDS011;4185;41.506;24.938;2023-05-02T00:23:17;8.43;;;7.00;;
8293;SDS011;4185;41.506;24.938;2023-05-02T00:25:46;8.73;;;7.43;;
8293;SDS011;4185;41.506;24.938;2023-05-02T00:28:12;8.13;;;6.50;;
8293;SDS011;4185;41.506;24.938;2023-05-02T00:30:42;8.60;;;6.33;;
8293;SDS011;4185;41.506;24.938;2023-05-02T00:33:09;7.63;;;6.80;;
8293;SDS011;4185;41.506;24.938;2023-05-02T00:35:37;9.03;;;6.90;;
8293;SDS011;4185;41.506;24.938;2023-05-02T00:38:04;8.83;;;7.30;;
8293;SDS011;4185;41.506;24.938;2023-05-02T00:40:41;8.73;;;7.17;;
8293;SDS011;4185;41.506;24.938;2023-05-02T00:43:10;7.47;;;6.20;;
8293;SDS011;4185;41.506;24.938;2023-05-02T00:45:37;9.67;;;7.57;;
8293;SDS011;4185;41.506;24.938;2023-05-02T00:48:05;8.87;;;6.73;;
8293;SDS011;4185;41.506;24.938;2023-05-02T00:50:33;8.30;;;6.93;;
8293;SDS011;4185;41.506;24.938;2023-05-02T00:53:01;8.47;;;7.57;;
8293;SDS011;4185;41.506;24.938;2023-05-02T00:55:30;9.17;;;7.67;;
8293;SDS011;4185;41.506;24.938;2023-05-02T00:57:58;7.73;;;6.37;;
8293;SDS011;4185;41.506;24.938;2023-05-02T01:00:28;9.70;;;7.33;;
8293;SDS011;4185;41.506;24.938;2023-05-02T01:03:04;9.40;;;7.23;;
8293;SDS011;4185;41.506;24.938;2023-05-02T01:05:43;8.67;;;7.40;;
8293;SDS011;4185;41.506;24.938;2023-05-02T01:08:16;8.37;;;7.40;;
8293;SDS011;4185;41.506;24.938;2023-05-02T01:10:51;10.27;;;7.37;;
8293;SDS011;4185;41.506;24.938;2023-05-02T01:13:27;10.07;;;7.47;;
8293;SDS011;4185;41.506;24.938;2023-05-02T01:15:58;8.27;;;7.23;;
8293;SDS011;4185;41.506;24.938;2023-05-02T01:18:29;9.53;;;7.50;;
8293;SDS011;4185;41.506;24.938;2023-05-02T01:20:59;11.43;;;8.07;;
8293;SDS011;4185;41.506;24.938;2023-05-02T01:23:31;9.20;;;7.57;;
8293;SDS011;4185;41.506;24.938;2023-05-02T01:26:10;8.10;;;6.70;;
8293;SDS011;4185;41.506;24.938;2023-05-02T01:31:26;8.27;;;7.23;;
8293;SDS011;4185;41.506;24.938;2023-05-02T01:33:56;7.83;;;6.90;;
8293;SDS011;4185;41.506;24.938;2023-05-02T01:36:26;7.87;;;6.77;;
8293;SDS011;4185;41.506;24.938;2023-05-02T01:38:55;8.77;;;7.33;;
8293;SDS011;4185;41.506;24.938;2023-05-02T01:41:24;9.67;;;7.40;;
8293;SDS011;4185;41.506;24.938;2023-05-02T01:43:52;8.40;;;7.53;;
8293;SDS011;4185;41.506;24.938;2023-05-02T01:46:24;7.73;;;6.93;;
8293;SDS011;4185;41.506;24.938;2023-05-02T01:48:52;8.50;;;7.60;;
8293;SDS011;4185;41.506;24.938;2023-05-02T01:51:22;11.63;;;7.93;;
8293;SDS011;4185;41.506;24.938;2023-05-02T01:53:56;9.50;;;7.30;;
8293;SDS011;4185;41.506;24.938;2023-05-02T01:56:25;7.80;;;6.63;;
8293;SDS011;4185;41.506;24.938;2023-05-02T01:58:54;10.23;;;7.70;;
8293;SDS011;4185;41.506;24.938;2023-05-02T02:01:23;9.53;;;7.37;;
8293;SDS011;4185;41.506;24.938;2023-05-02T02:03:53;10.00;;;7.20;;
8293;SDS011;4185;41.506;24.938;2023-05-02T02:06:21;8.80;;;7.50;;
8293;SDS011;4185;41.506;24.938;2023-05-02T02:08:48;13.73;;;7.90;;
8293;SDS011;4185;41.506;24.938;2023-05-02T02:11:16;9.40;;;7.27;;
8293;SDS011;4185;41.506;24.938;2023-05-02T02:13:52;9.70;;;7.73;;
8293;SDS011;4185;41.506;24.938;2023-05-02T02:16:29;10.10;;;7.63;;
8293;SDS011;4185;41.506;24.938;2023-05-02T02:19:01;7.67;;;6.70;;
8293;SDS011;4185;41.506;24.938;2023-05-02T02:21:33;9.33;;;7.37;;
8293;SDS011;4185;41.506;24.938;2023-05-02T02:24:01;9.43;;;7.13;;
8293;SDS011;4185;41.506;24.938;2023-05-02T02:26:30;10.03;;;7.73;;
8293;SDS011;4185;41.506;24.938;2023-05-02T02:28:57;11.27;;;7.57;;
8293;SDS011;4185;41.506;24.938;2023-05-02T02:31:30;9.33;;;7.80;;
8293;SDS011;4185;41.506;24.938;2023-05-02T02:33:57;10.47;;;8.07;;
8293;SDS011;4185;41.506;24.938;2023-05-02T02:36:27;9.60;;;7.43;;
8293;SDS011;4185;41.506;24.938;2023-05-02T02:39:01;9.80;;;7.27;;
8293;SDS011;4185;41.506;24.938;2023-05-02T02:41:39;8.70;;;7.43;;
8293;SDS011;4185;41.506;24.938;2023-05-02T02:44:13;10.03;;;7.27;;
8293;SDS011;4185;41.506;24.938;2023-05-02T02:46:54;8.03;;;7.03;;
8293;SDS011;4185;41.506;24.938;2023-05-02T02:49:29;10.03;;;7.20;;
8293;SDS011;4185;41.506;24.938;2023-05-02T02:52:02;9.10;;;6.63;;
8293;SDS011;4185;41.506;24.938;2023-05-02T02:54:37;10.27;;;6.90;;
8293;SDS011;4185;41.506;24.938;2023-05-02T02:57:15;9.70;;;7.17;;
8293;SDS011;4185;41.506;24.938;2023-05-02T02:59:48;10.33;;;7.10;;
8293;SDS011;4185;41.506;24.938;2023-05-02T03:02:25;12.60;;;7.23;;
8293;SDS011;4185;41.506;24.938;2023-05-02T03:04:54;9.50;;;7.40;;
8293;SDS011;4185;41.506;24.938;2023-05-02T03:07:22;7.43;;;6.67;;
8293;SDS011;4185;41.506;24.938;2023-05-02T03:09:49;8.07;;;6.97;;
8293;SDS011;4185;41.506;24.938;2023-05-02T03:12:16;8.20;;;7.33;;
8293;SDS011;4185;41.506;24.938;2023-05-02T03:14:43;9.50;;;7.77;;
8293;SDS011;4185;41.506;24.938;2023-05-02T03:17:10;8.57;;;7.23;;
8293;SDS011;4185;41.506;24.938;2023-05-02T03:19:38;9.77;;;7.80;;
8293;SDS011;4185;41.506;24.938;2023-05-02T03:22:05;8.73;;;7.77;;
8293;SDS011;4185;41.506;24.938;2023-05-02T03:24:32;21.17;;;17.50;;
8293;SDS011;4185;41.506;24.938;2023-05-02T03:26:59;10.40;;;9.10;;
8293;SDS011;4185;41.506;24.938;2023-05-02T03:29:25;10.63;;;7.60;;
8293;SDS011;4185;41.506;24.938;2023-05-02T03:31:53;11.60;;;8.53;;
8293;SDS011;4185;41.506;24.938;2023-05-02T03:34:20;8.93;;;7.63;;
8293;SDS011;4185;41.506;24.938;2023-05-02T03:36:48;11.83;;;9.73;;
8293;SDS011;4185;41.506;24.938;2023-05-02T03:39:15;24.27;;;21.83;;
8293;SDS011;4185;41.506;24.938;2023-05-02T03:41:42;15.97;;;14.43;;
8293;SDS011;4185;41.506;24.938;2023-05-02T03:44:09;17.10;;;15.50;;
8293;SDS011;4185;41.506;24.938;2023-05-02T03:46:35;9.93;;;7.00;;
8293;SDS011;4185;41.506;24.938;2023-05-02T03:49:02;7.97;;;7.07;;
8293;SDS011;4185;41.506;24.938;2023-05-02T03:51:29;9.37;;;7.03;;
8293;SDS011;4185;41.506;24.938;2023-05-02T03:54:00;12.23;;;8.13;;
8293;SDS011;4185;41.506;24.938;2023-05-02T03:56:27;9.63;;;7.30;;
8293;SDS011;4185;41.506;24.938;2023-05-02T03:58:54;9.23;;;7.73;;
8293;SDS011;4185;41.506;24.938;2023-05-02T04:01:21;8.60;;;7.40;;
8293;SDS011;4185;41.506;24.938;2023-05-02T04:03:48;19.57;;;17.57;;
8293;SDS011;4185;41.506;24.938;2023-05-02T04:06:15;27.60;;;25.03;;
8293;SDS011;4185;41.506;24.938;2023-05-02T04:08:42;27.87;;;24.50;;
8293;SDS011;4185;41.506;24.938;2023-05-02T04:11:10;13.53;;;9.73;;
8293;SDS011;4185;41.506;24.938;2023-05-02T04:13:37;12.87;;;10.30;;
8293;SDS011;4185;41.506;24.938;2023-05-02T04:16:04;13.30;;;9.17;;
8293;SDS011;4185;41.506;24.938;2023-05-02T04:18:31;14.00;;;12.33;;
8293;SDS011;4185;41.506;24.938;2023-05-02T04:20:58;11.77;;;8.13;;
8293;SDS011;4185;41.506;24.938;2023-05-02T04:23:25;23.33;;;20.97;;
8293;SDS011;4185;41.506;24.938;2023-05-02T04:25:51;14.23;;;10.60;;
8293;SDS011;4185;41.506;24.938;2023-05-02T04:28:20;22.40;;;15.57;;
8293;SDS011;4185;41.506;24.938;2023-05-02T04:30:48;15.47;;;13.80;;
8293;SDS011;4185;41.506;24.938;2023-05-02T04:33:16;11.40;;;9.87;;
8293;SDS011;4185;41.506;24.938;2023-05-02T04:35:43;15.27;;;13.77;;
8293;SDS011;4185;41.506;24.938;2023-05-02T04:38:10;11.63;;;10.53;;
8293;SDS011;4185;41.506;24.938;2023-05-02T04:40:37;9.53;;;8.00;;
8293;SDS011;4185;41.506;24.938;2023-05-02T04:43:04;8.33;;;7.03;;
8293;SDS011;4185;41.506;24.938;2023-05-02T04:45:33;9.20;;;8.27;;
8293;SDS011;4185;41.506;24.938;2023-05-02T04:48:00;8.47;;;7.00;;
8293;SDS011;4185;41.506;24.938;2023-05-02T04:50:27;8.53;;;6.90;;
8293;SDS011;4185;41.506;24.938;2023-05-02T04:52:53;9.33;;;7.23;;
8293;SDS011;4185;41.506;24.938;2023-05-02T04:55:20;10.47;;;9.03;;
8293;SDS011;4185;41.506;24.938;2023-05-02T04:57:47;11.40;;;10.20;;
8293;SDS011;4185;41.506;24.938;2023-05-02T05:00:14;7.80;;;7.00;;
8293;SDS011;4185;41.506;24.938;2023-05-02T05:02:43;7.70;;;6.27;;
8293;SDS011;4185;41.506;24.938;2023-05-02T05:05:09;7.73;;;6.87;;
8293;SDS011;4185;41.506;24.938;2023-05-02T05:07:36;7.83;;;6.53;;
8293;SDS011;4185;41.506;24.938;2023-05-02T05:10:03;9.50;;;8.43;;
8293;SDS011;4185;41.506;24.938;2023-05-02T05:12:32;7.47;;;6.73;;
8293;SDS011;4185;41.506;24.938;2023-05-02T05:14:59;10.07;;;7.70;;
8293;SDS011;4185;41.506;24.938;2023-05-02T05:17:25;10.10;;;6.83;;
8293;SDS011;4185;41.506;24.938;2023-05-02T05:19:54;8.27;;;6.70;;
8293;SDS011;4185;41.506;24.938;2023-05-02T05:22:21;7.67;;;6.57;;
8293;SDS011;4185;41.506;24.938;2023-05-02T05:24:51;6.87;;;5.83;;
8293;SDS011;4185;41.506;24.938;2023-05-02T05:27:18;7.27;;;6.17;;
8293;SDS011;4185;41.506;24.938;2023-05-02T05:29:45;6.20;;;5.20;;
8293;SDS011;4185;41.506;24.938;2023-05-02T05:32:12;7.30;;;6.03;;
8293;SDS011;4185;41.506;24.938;2023-05-02T05:34:39;7.17;;;5.47;;
8293;SDS011;4185;41.506;24.938;2023-05-02T05:37:07;6.90;;;5.33;;
8293;SDS011;4185;41.506;24.938;2023-05-02T05:39:34;6.67;;;5.17;;
8293;SDS011;4185;41.506;24.938;2023-05-02T05:42:01;6.13;;;4.80;;
8293;SDS011;4185;41.506;24.938;2023-05-02T05:44:28;6.30;;;5.43;;
8293;SDS011;4185;41.506;24.938;2023-05-02T05:46:55;6.13;;;5.23;;
8293;SDS011;4185;41.506;24.938;2023-05-02T05:49:22;7.10;;;5.77;;
8293;SDS011;4185;41.506;24.938;2023-05-02T05:51:49;6.30;;;5.50;;
8293;SDS011;4185;41.506;24.938;2023-05-02T05:54:17;10.50;;;5.50;;
8293;SDS011;4185;41.506;24.938;2023-05-02T05:56:44;7.73;;;6.10;;
8293;SDS011;4185;41.506;24.938;2023-05-02T05:59:11;8.23;;;5.73;;
8293;SDS011;4185;41.506;24.938;2023-05-02T06:01:38;7.07;;;5.73;;
8293;SDS011;4185;41.506;24.938;2023-05-02T06:04:05;10.00;;;7.03;;
8293;SDS011;4185;41.506;24.938;2023-05-02T06:06:32;11.47;;;7.20;;
8293;SDS011;4185;41.506;24.938;2023-05-02T06:08:59;9.07;;;6.47;;
8293;SDS011;4185;41.506;24.938;2023-05-02T06:11:28;10.43;;;6.73;;
8293;SDS011;4185;41.506;24.938;2023-05-02T06:13:55;11.70;;;7.37;;
8293;SDS011;4185;41.506;24.938;2023-05-02T06:16:22;10.10;;;6.90;;
8293;SDS011;4185;41.506;24.938;2023-05-02T06:18:49;7.30;;;6.10;;
8293;SDS011;4185;41.506;24.938;2023-05-02T06:21:17;9.33;;;5.87;;
8293;SDS011;4185;41.506;24.938;2023-05-02T06:23:44;7.93;;;6.00;;
8293;SDS011;4185;41.506;24.938;2023-05-02T06:26:11;10.17;;;7.37;;
8293;SDS011;4185;41.506;24.938;2023-05-02T06:28:40;9.27;;;6.90;;
8293;SDS011;4185;41.506;24.938;2023-05-02T06:31:08;17.03;;;11.17;;
8293;SDS011;4185;41.506;24.938;2023-05-02T06:33:35;8.70;;;6.83;;
8293;SDS011;4185;41.506;24.938;2023-05-02T06:36:02;10.33;;;6.43;;
8293;SDS011;4185;41.506;24.938;2023-05-02T06:38:29;8.40;;;6.70;;
8293;SDS011;4185;41.506;24.938;2023-05-02T06:40:56;8.90;;;6.50;;
8293;SDS011;4185;41.506;24.938;2023-05-02T06:43:23;10.70;;;6.10;;
8293;SDS011;4185;41.506;24.938;2023-05-02T06:45:53;6.50;;;5.67;;
8293;SDS011;4185;41.506;24.938;2023-05-02T06:48:20;6.97;;;5.60;;
8293;SDS011;4185;41.506;24.938;2023-05-02T06:50:47;5.83;;;5.10;;
8293;SDS011;4185;41.506;24.938;2023-05-02T06:53:14;6.90;;;5.40;;
8293;SDS011;4185;41.506;24.938;2023-05-02T06:55:41;6.03;;;5.43;;
8293;SDS011;4185;41.506;24.938;2023-05-02T06:58:08;5.97;;;4.90;;
8293;SDS011;4185;41.506;24.938;2023-05-02T07:00:35;8.17;;;5.73;;
8293;SDS011;4185;41.506;24.938;2023-05-02T07:03:03;5.23;;;4.67;;
8293;SDS011;4185;41.506;24.938;2023-05-02T07:05:30;5.57;;;4.93;;
8293;SDS011;4185;41.506;24.938;2023-05-02T07:07:56;5.87;;;4.47;;
8293;SDS011;4185;41.506;24.938;2023-05-02T07:10:23;4.50;;;4.00;;
8293;SDS011;4185;41.506;24.938;2023-05-02T07:12:50;5.17;;;4.53;;
8293;SDS011;4185;41.506;24.938;2023-05-02T07:15:17;4.93;;;4.07;;
8293;SDS011;4185;41.506;24.938;2023-05-02T07:17:44;4.97;;;4.23;;
8293;SDS011;4185;41.506;24.938;2023-05-02T07:20:13;4.37;;;3.97;;
8293;SDS011;4185;41.506;24.938;2023-05-02T07:22:40;4.17;;;3.57;;
8293;SDS011;4185;41.506;24.938;2023-05-02T07:25:07;4.23;;;3.77;;
8293;SDS011;4185;41.506;24.938;2023-05-02T07:27:34;4.00;;;3.43;;
8293;SDS011;4185;41.506;24.938;2023-05-02T07:30:01;5.27;;;3.20;;
8293;SDS011;4185;41.506;24.938;2023-05-02T07:32:29;4.07;;;3.67;;
8293;SDS011;4185;41.506;24.938;2023-05-02T07:34:56;5.20;;;3.57;;
8293;SDS011;4185;41.506;24.938;2023-05-02T07:37:24;4.73;;;3.80;;
8293;SDS011;4185;41.506;24.938;2023-05-02T07:39:51;5.40;;;3.47;;
8293;SDS011;4185;41.506;24.938;2023-05-02T07:42:18;8.83;;;3.47;;
8293;SDS011;4185;41.506;24.938;2023-05-02T07:44:45;3.27;;;2.97;;
8293;SDS011;4185;41.506;24.938;2023-05-02T07:47:11;5.03;;;2.60;;
8293;SDS011;4185;41.506;24.938;2023-05-02T07:49:38;4.77;;;3.20;;
8293;SDS011;4185;41.506;24.938;2023-05-02T07:52:05;2.83;;;2.57;;
8293;SDS011;4185;41.506;24.938;2023-05-02T07:54:33;3.37;;;2.70;;
8293;SDS011;4185;41.506;24.938;2023-05-02T07:57:00;3.43;;;2.50;;
8293;SDS011;4185;41.506;24.938;2023-05-02T07:59:29;4.50;;;2.63;;
8293;SDS011;4185;41.506;24.938;2023-05-02T08:01:56;3.03;;;2.30;;
8293;SDS011;4185;41.506;24.938;2023-05-02T08:04:23;4.57;;;3.00;;
8293;SDS011;4185;41.506;24.938;2023-05-02T08:06:50;5.03;;;2.70;;
8293;SDS011;4185;41.506;24.938;2023-05-02T08:09:16;2.17;;;1.97;;
8293;SDS011;4185;41.506;24.938;2023-05-02T08:11:45;3.77;;;2.23;;
8293;SDS011;4185;41.506;24.938;2023-05-02T08:14:12;5.00;;;3.43;;
8293;SDS011;4185;41.506;24.938;2023-05-02T08:16:38;8.73;;;3.50;;
8293;SDS011;4185;41.506;24.938;2023-05-02T08:19:05;5.33;;;3.80;;
8293;SDS011;4185;41.506;24.938;2023-05-02T08:21:32;5.30;;;2.83;;
8293;SDS011;4185;41.506;24.938;2023-05-02T08:23:59;5.30;;;2.10;;
8293;SDS011;4185;41.506;24.938;2023-05-02T08:26:26;2.20;;;1.83;;
8293;SDS011;4185;41.506;24.938;2023-05-02T08:28:54;3.13;;;2.13;;
8293;SDS011;4185;41.506;24.938;2023-05-02T08:31:21;2.93;;;2.37;;
8293;SDS011;4185;41.506;24.938;2023-05-02T08:33:48;2.67;;;1.90;;
8293;SDS011;4185;41.506;24.938;2023-05-02T08:36:16;3.23;;;1.80;;
8293;SDS011;4185;41.506;24.938;2023-05-02T08:38:44;2.27;;;1.87;;
8293;SDS011;4185;41.506;24.938;2023-05-02T08:41:12;2.53;;;1.50;;
8293;SDS011;4185;41.506;24.938;2023-05-02T08:43:41;3.33;;;2.80;;
8293;SDS011;4185;41.506;24.938;2023-05-02T08:46:09;3.20;;;1.60;;
8293;SDS011;4185;41.506;24.938;2023-05-02T08:48:37;4.43;;;1.87;;
8293;SDS011;4185;41.506;24.938;2023-05-02T08:51:07;2.53;;;1.87;;
8293;SDS011;4185;41.506;24.938;2023-05-02T08:53:35;5.87;;;2.47;;
8293;SDS011;4185;41.506;24.938;2023-05-02T08:56:03;2.50;;;2.10;;
8293;SDS011;4185;41.506;24.938;2023-05-02T08:58:31;1.83;;;1.67;;
8293;SDS011;4185;41.506;24.938;2023-05-02T09:00:59;1.60;;;1.50;;
8293;SDS011;4185;41.506;24.938;2023-05-02T09:03:29;2.57;;;1.40;;
8293;SDS011;4185;41.506;24.938;2023-05-02T09:06:01;3.37;;;1.80;;
8293;SDS011;4185;41.506;24.938;2023-05-02T09:08:31;5.07;;;1.60;;
8293;SDS011;4185;41.506;24.938;2023-05-02T09:10:58;3.13;;;1.63;;
8293;SDS011;4185;41.506;24.938;2023-05-02T09:13:31;2.97;;;1.97;;
8293;SDS011;4185;41.506;24.938;2023-05-02T09:16:01;2.40;;;1.40;;
8293;SDS011;4185;41.506;24.938;2023-05-02T09:18:31;2.67;;;1.50;;
8293;SDS011;4185;41.506;24.938;2023-05-02T09:20:59;3.50;;;1.30;;
8293;SDS011;4185;41.506;24.938;2023-05-02T09:23:37;1.50;;;1.27;;
8293;SDS011;4185;41.506;24.938;2023-05-02T09:26:13;5.37;;;1.83;;
8293;SDS011;4185;41.506;24.938;2023-05-02T09:28:42;1.83;;;1.30;;
8293;SDS011;4185;41.506;24.938;2023-05-02T09:31:11;4.33;;;1.90;;
8293;SDS011;4185;41.506;24.938;2023-05-02T09:33:41;3.67;;;1.87;;
8293;SDS011;4185;41.506;24.938;2023-05-02T09:36:08;1.97;;;1.30;;
8293;SDS011;4185;41.506;24.938;2023-05-02T09:38:36;1.30;;;1.20;;
8293;SDS011;4185;41.506;24.938;2023-05-02T09:41:04;2.23;;;1.50;;
8293;SDS011;4185;41.506;24.938;2023-05-02T09:43:31;2.57;;;1.70;;
8293;SDS011;4185;41.506;24.938;2023-05-02T09:45:58;1.87;;;1.43;;
8293;SDS011;4185;41.506;24.938;2023-05-02T09:48:27;1.37;;;1.23;;
8293;SDS011;4185;41.506;24.938;2023-05-02T09:50:56;2.30;;;1.73;;
8293;SDS011;4185;41.506;24.938;2023-05-02T09:53:23;2.50;;;1.53;;
8293;SDS011;4185;41.506;24.938;2023-05-02T09:56:00;2.83;;;1.53;;
8293;SDS011;4185;41.506;24.938;2023-05-02T09:58:28;1.77;;;1.63;;
8293;SDS011;4185;41.506;24.938;2023-05-02T10:00:56;3.47;;;1.97;;
8293;SDS011;4185;41.506;24.938;2023-05-02T10:03:25;1.77;;;1.50;;
8293;SDS011;4185;41.506;24.938;2023-05-02T10:05:53;1.57;;;1.30;;
8293;SDS011;4185;41.506;24.938;2023-05-02T10:08:23;1.73;;;1.63;;
8293;SDS011;4185;41.506;24.938;2023-05-02T10:10:52;1.80;;;1.60;;
8293;SDS011;4185;41.506;24.938;2023-05-02T10:13:21;1.80;;;1.47;;
8293;SDS011;4185;41.506;24.938;2023-05-02T10:15:53;1.70;;;1.60;;
8293;SDS011;4185;41.506;24.938;2023-05-02T10:18:28;1.83;;;1.63;;
8293;SDS011;4185;41.506;24.938;2023-05-02T10:20:59;1.60;;;1.43;;
8293;SDS011;4185;41.506;24.938;2023-05-02T10:23:32;2.50;;;1.63;;
8293;SDS011;4185;41.506;24.938;2023-05-02T10:25:59;1.63;;;1.23;;
8293;SDS011;4185;41.506;24.938;2023-05-02T10:28:27;2.00;;;1.60;;
8293;SDS011;4185;41.506;24.938;2023-05-02T10:30:55;7.73;;;2.27;;
8293;SDS011;4185;41.506;24.938;2023-05-02T10:33:23;7.67;;;2.30;;
8293;SDS011;4185;41.506;24.938;2023-05-02T10:35:50;3.33;;;1.73;;
8293;SDS011;4185;41.506;24.938;2023-05-02T10:38:18;2.50;;;1.37;;
8293;SDS011;4185;41.506;24.938;2023-05-02T10:40:52;1.70;;;1.37;;
8293;SDS011;4185;41.506;24.938;2023-05-02T10:43:26;3.77;;;1.57;;
8293;SDS011;4185;41.506;24.938;2023-05-02T10:45:56;1.43;;;1.33;;
8293;SDS011;4185;41.506;24.938;2023-05-02T10:48:24;1.90;;;1.40;;
8293;SDS011;4185;41.506;24.938;2023-05-02T10:50:52;2.50;;;1.40;;
8293;SDS011;4185;41.506;24.938;2023-05-02T10:53:27;1.40;;;1.30;;
8293;SDS011;4185;41.506;24.938;2023-05-02T10:56:09;2.43;;;1.70;;
8293;SDS011;4185;41.506;24.938;2023-05-02T10:58:37;2.97;;;1.50;;
8293;SDS011;4185;41.506;24.938;2023-05-02T11:04:01;5.63;;;2.80;;
8293;SDS011;4185;41.506;24.938;2023-05-02T11:06:29;3.53;;;2.40;;
8293;SDS011;4185;41.506;24.938;2023-05-02T11:11:58;8.23;;;2.10;;
8293;SDS011;4185;41.506;24.938;2023-05-02T11:17:14;2.23;;;1.40;;
8293;SDS011;4185;41.506;24.938;2023-05-02T11:22:49;1.53;;;1.43;;
8293;SDS011;4185;41.506;24.938;2023-05-02T11:25:33;2.33;;;1.63;;
8293;SDS011;4185;41.506;24.938;2023-05-02T11:28:05;2.33;;;1.40;;
8293;SDS011;4185;41.506;24.938;2023-05-02T11:30:40;1.77;;;1.53;;
8293;SDS011;4185;41.506;24.938;2023-05-02T11:33:15;2.90;;;1.43;;
8293;SDS011;4185;41.506;24.938;2023-05-02T11:35:44;3.70;;;2.10;;
8293;SDS011;4185;41.506;24.938;2023-05-02T11:38:18;4.10;;;2.87;;
8293;SDS011;4185;41.506;24.938;2023-05-02T11:40:56;2.67;;;2.10;;
8293;SDS011;4185;41.506;24.938;2023-05-02T11:43:26;2.03;;;1.50;;
8293;SDS011;4185;41.506;24.938;2023-05-02T11:45:54;1.50;;;1.40;;
8293;SDS011;4185;41.506;24.938;2023-05-02T11:48:23;1.73;;;1.63;;
8293;SDS011;4185;41.506;24.938;2023-05-02T11:50:53;2.17;;;1.47;;
8293;SDS011;4185;41.506;24.938;2023-05-02T11:53:21;5.13;;;2.47;;
8293;SDS011;4185;41.506;24.938;2023-05-02T11:55:50;4.53;;;2.17;;
8293;SDS011;4185;41.506;24.938;2023-05-02T11:58:18;1.50;;;1.40;;
8293;SDS011;4185;41.506;24.938;2023-05-02T12:00:48;2.70;;;1.50;;
8293;SDS011;4185;41.506;24.938;2023-05-02T12:03:20;3.33;;;1.63;;
8293;SDS011;4185;41.506;24.938;2023-05-02T12:05:52;1.77;;;1.67;;
8293;SDS011;4185;41.506;24.938;2023-05-02T12:08:19;1.67;;;1.57;;
8293;SDS011;4185;41.506;24.938;2023-05-02T12:10:48;1.80;;;1.63;;
8293;SDS011;4185;41.506;24.938;2023-05-02T12:13:16;2.90;;;1.60;;
8293;SDS011;4185;41.506;24.938;2023-05-02T12:15:44;2.17;;;1.60;;
8293;SDS011;4185;41.506;24.938;2023-05-02T12:18:13;1.87;;;1.60;;
8293;SDS011;4185;41.506;24.938;2023-05-02T12:20:40;1.77;;;1.50;;
8293;SDS011;4185;41.506;24.938;2023-05-02T12:23:09;1.60;;;1.50;;
8293;SDS011;4185;41.506;24.938;2023-05-02T12:25:38;1.50;;;1.40;;
8293;SDS011;4185;41.506;24.938;2023-05-02T12:28:05;2.80;;;1.70;;
8293;SDS011;4185;41.506;24.938;2023-05-02T12:30:33;1.70;;;1.40;;
8293;SDS011;4185;41.506;24.938;2023-05-02T12:33:02;3.33;;;1.77;;
8293;SDS011;4185;41.506;24.938;2023-05-02T12:35:32;2.97;;;2.10;;
8293;SDS011;4185;41.506;24.938;2023-05-02T12:40:46;2.47;;;1.70;;
8293;SDS011;4185;41.506;24.938;2023-05-02T12:43:14;1.80;;;1.70;;
8293;SDS011;4185;41.506;24.938;2023-05-02T12:45:41;2.17;;;1.80;;
8293;SDS011;4185;41.506;24.938;2023-05-02T12:48:18;2.63;;;1.67;;
8293;SDS011;4185;41.506;24.938;2023-05-02T12:50:53;3.83;;;1.70;;
8293;SDS011;4185;41.506;24.938;2023-05-02T12:53:39;1.70;;;1.60;;
8293;SDS011;4185;41.506;24.938;2023-05-02T12:56:07;3.60;;;1.63;;
8293;SDS011;4185;41.506;24.938;2023-05-02T12:58:41;2.53;;;2.10;;
8293;SDS011;4185;41.506;24.938;2023-05-02T13:01:09;2.07;;;1.50;;
8293;SDS011;4185;41.506;24.938;2023-05-02T13:03:36;2.67;;;1.63;;
8293;SDS011;4185;41.506;24.938;2023-05-02T13:06:04;2.53;;;1.87;;
8293;SDS011;4185;41.506;24.938;2023-05-02T13:08:32;1.53;;;1.43;;
8293;SDS011;4185;41.506;24.938;2023-05-02T13:10:59;2.07;;;1.60;;
8293;SDS011;4185;41.506;24.938;2023-05-02T13:13:26;1.83;;;1.43;;
8293;SDS011;4185;41.506;24.938;2023-05-02T13:15:54;3.57;;;1.60;;
8293;SDS011;4185;41.506;24.938;2023-05-02T13:18:20;2.10;;;1.67;;
8293;SDS011;4185;41.506;24.938;2023-05-02T13:20:48;2.10;;;1.43;;
8293;SDS011;4185;41.506;24.938;2023-05-02T13:23:16;2.23;;;1.70;;
8293;SDS011;4185;41.506;24.938;2023-05-02T13:25:42;1.83;;;1.60;;
8293;SDS011;4185;41.506;24.938;2023-05-02T13:28:09;1.50;;;1.40;;
8293;SDS011;4185;41.506;24.938;2023-05-02T13:30:36;2.23;;;1.40;;
8293;SDS011;4185;41.506;24.938;2023-05-02T13:33:03;1.80;;;1.70;;
8293;SDS011;4185;41.506;24.938;2023-05-02T13:35:29;2.97;;;1.77;;
8293;SDS011;4185;41.506;24.938;2023-05-02T13:37:56;1.63;;;1.37;;
8293;SDS011;4185;41.506;24.938;2023-05-02T13:40:24;1.60;;;1.50;;
8293;SDS011;4185;41.506;24.938;2023-05-02T13:42:51;1.57;;;1.33;;
8293;SDS011;4185;41.506;24.938;2023-05-02T13:45:18;2.80;;;1.60;;
8293;SDS011;4185;41.506;24.938;2023-05-02T13:47:45;2.30;;;1.50;;
8293;SDS011;4185;41.506;24.938;2023-05-02T13:50:11;3.90;;;2.17;;
8293;SDS011;4185;41.506;24.938;2023-05-02T13:52:38;2.40;;;2.17;;
8293;SDS011;4185;41.506;24.938;2023-05-02T13:55:05;1.73;;;1.30;;
8293;SDS011;4185;41.506;24.938;2023-05-02T13:57:34;1.90;;;1.80;;
8293;SDS011;4185;41.506;24.938;2023-05-02T14:00:01;1.90;;;1.70;;
8293;SDS011;4185;41.506;24.938;2023-05-02T14:02:28;3.53;;;2.00;;
8293;SDS011;4185;41.506;24.938;2023-05-02T14:04:54;4.07;;;2.23;;
8293;SDS011;4185;41.506;24.938;2023-05-02T14:07:21;2.73;;;2.43;;
8293;SDS011;4185;41.506;24.938;2023-05-02T14:09:48;4.30;;;1.73;;
8293;SDS011;4185;41.506;24.938;2023-05-02T14:12:15;1.57;;;1.33;;
8293;SDS011;4185;41.506;24.938;2023-05-02T14:14:43;2.00;;;1.27;;
8293;SDS011;4185;41.506;24.938;2023-05-02T14:17:10;1.93;;;1.57;;
8293;SDS011;4185;41.506;24.938;2023-05-02T14:19:36;2.53;;;1.47;;
8293;SDS011;4185;41.506;24.938;2023-05-02T14:22:03;2.47;;;1.40;;
8293;SDS011;4185;41.506;24.938;2023-05-02T14:24:31;1.70;;;1.43;;
8293;SDS011;4185;41.506;24.938;2023-05-02T14:26:58;1.83;;;1.30;;
8293;SDS011;4185;41.506;24.938;2023-05-02T14:29:25;2.40;;;1.50;;
8293;SDS011;4185;41.506;24.938;2023-05-02T14:31:53;2.63;;;1.83;;
8293;SDS011;4185;41.506;24.938;2023-05-02T14:34:20;1.50;;;1.40;;
8293;SDS011;4185;41.506;24.938;2023-05-02T14:36:50;1.60;;;1.50;;
8293;SDS011;4185;41.506;24.938;2023-05-02T14:39:17;4.07;;;1.60;;
8293;SDS011;4185;41.506;24.938;2023-05-02T14:41:44;2.57;;;1.57;;
8293;SDS011;4185;41.506;24.938;2023-05-02T14:44:11;5.17;;;2.73;;
8293;SDS011;4185;41.506;24.938;2023-05-02T14:46:37;3.20;;;2.30;;
8293;SDS011;4185;41.506;24.938;2023-05-02T14:49:06;6.83;;;4.87;;
8293;SDS011;4185;41.506;24.938;2023-05-02T14:51:32;3.33;;;2.60;;
8293;SDS011;4185;41.506;24.938;2023-05-02T14:53:59;3.13;;;1.77;;
8293;SDS011;4185;41.506;24.938;2023-05-02T14:56:26;3.03;;;2.00;;
8293;SDS011;4185;41.506;24.938;2023-05-02T14:58:53;2.03;;;1.73;;
8293;SDS011;4185;41.506;24.938;2023-05-02T15:01:20;2.40;;;1.63;;
8293;SDS011;4185;41.506;24.938;2023-05-02T15:03:47;1.97;;;1.70;;
8293;SDS011;4185;41.506;24.938;2023-05-02T15:06:17;1.80;;;1.70;;
8293;SDS011;4185;41.506;24.938;2023-05-02T15:08:44;2.63;;;1.80;;
8293;SDS011;4185;41.506;24.938;2023-05-02T15:11:12;2.70;;;2.50;;
8293;SDS011;4185;41.506;24.938;2023-05-02T15:13:40;1.67;;;1.57;;
8293;SDS011;4185;41.506;24.938;2023-05-02T15:16:08;2.30;;;2.10;;
8293;SDS011;4185;41.506;24.938;2023-05-02T15:18:35;2.73;;;1.70;;
8293;SDS011;4185;41.506;24.938;2023-05-02T15:21:02;1.80;;;1.70;;
8293;SDS011;4185;41.506;24.938;2023-05-02T15:23:30;5.50;;;3.20;;